Weather at San Manuel Airport

Public forecast

Using degrees Fahrenheit for public forecast. Weather courtesy of forecast.io.

Closest aviation weather report (METAR) to San Manuel Airport

Closest report is Davis Monthan Air Force Base, 30.7 nm (56.8 km) SSW. Retrieved 2021/07/28 15:58 UTC (49 minutes ago):

KDMA 281558Z AUTO 10006KT 10SM CLR 28/16 A3010 RMK AO2 SLP152 T02840160

Closest aviation forecast (TAF) to San Manuel Airport

Forecast is more than 6 hours old.

Closest forecast is Davis Monthan Air Force Base, 30.7 nm (56.8 km) SSW. Retrieved 2021/07/28 06:00 UTC (11 hours ago):

TAF TAF KDMA 280605Z 2806/2912 09006KT 9999 FEW100 BKN150 QNH3011INS BECMG 2808/2809 09006KT 9999 FEW100 QNH3008INS BECMG 2814/2815 VRB06KT 9999 SKC QNH3007INS BECMG 2819/2820 30009KT 9999 FEW150 QNH2997INS TX37/2822Z TN22/2812Z